createdAt,value
2019-02-27T00:01:02.062Z,54.30
2019-02-27T00:03:42.593Z,54.50
2019-02-27T00:06:14.970Z,54.60
2019-02-27T00:08:43.090Z,54.80
2019-02-27T00:11:13.010Z,55.30
2019-02-27T00:13:42.952Z,57.10
2019-02-27T00:16:12.360Z,56.80
2019-02-27T00:18:41.679Z,56.50
2019-02-27T00:21:11.282Z,55.90
2019-02-27T00:23:42.279Z,55.70
2019-02-27T00:26:11.729Z,56.00
2019-02-27T00:28:41.016Z,57.40
2019-02-27T00:31:11.550Z,57.50
2019-02-27T00:33:41.356Z,57.60
2019-02-27T00:36:12.292Z,57.30
2019-02-27T00:38:41.715Z,57.60
2019-02-27T00:41:12.820Z,57.30
2019-02-27T00:43:42.130Z,56.90
2019-02-27T00:46:13.343Z,56.50
2019-02-27T00:48:42.472Z,56.30
2019-02-27T00:51:12.146Z,56.20
2019-02-27T00:53:42.692Z,55.80
2019-02-27T00:56:12.877Z,56.40
2019-02-27T00:58:42.837Z,56.40
2019-02-27T01:01:12.598Z,56.50
2019-02-27T01:03:43.116Z,57.10
2019-02-27T01:06:14.637Z,56.90
2019-02-27T01:08:43.914Z,57.00
2019-02-27T01:11:13.196Z,56.60
2019-02-27T01:13:42.529Z,57.50
2019-02-27T01:16:11.927Z,57.10
2019-02-27T01:18:41.306Z,57.00
2019-02-27T01:21:10.594Z,57.10
2019-02-27T01:23:43.903Z,57.40
2019-02-27T01:26:10.931Z,57.20
2019-02-27T01:28:44.544Z,57.80
2019-02-27T01:31:11.275Z,57.80
2019-02-27T01:33:40.598Z,57.40
2019-02-27T01:36:10.154Z,57.10
2019-02-27T01:38:39.481Z,57.30
2019-02-27T01:41:08.792Z,57.30
2019-02-27T01:43:40.084Z,57.80
2019-02-27T01:46:09.117Z,58.00
2019-02-27T01:48:42.763Z,57.90
2019-02-27T01:51:09.490Z,58.30
2019-02-27T01:53:40.438Z,58.10
2019-02-27T01:56:09.916Z,58.60
2019-02-27T01:58:43.348Z,58.70
2019-02-27T02:01:10.344Z,58.70
2019-02-27T02:03:39.633Z,59.30
2019-02-27T02:06:09.223Z,59.30
2019-02-27T02:08:38.551Z,59.40
2019-02-27T02:11:07.875Z,59.10
2019-02-27T02:14:07.164Z,58.60
2019-02-27T02:17:01.360Z,58.30
2019-02-27T02:20:27.049Z,57.80
2019-02-27T02:23:47.807Z,57.50
2019-02-27T02:27:01.837Z,58.60
2019-02-27T02:30:11.458Z,59.10
2019-02-27T02:33:28.916Z,59.40
2019-02-27T02:36:24.797Z,59.20
2019-02-27T02:39:19.068Z,59.40
2019-02-27T02:42:24.239Z,60.00
2019-02-27T02:45:15.204Z,60.30
2019-02-27T02:47:57.659Z,60.20
2019-02-27T02:50:55.003Z,61.40
2019-02-27T02:54:17.241Z,61.30
2019-02-27T02:57:37.071Z,61.30
2019-02-27T03:00:39.395Z,61.50
2019-02-27T03:03:25.480Z,61.50
2019-02-27T03:06:34.965Z,61.00
2019-02-27T03:09:44.792Z,60.90
2019-02-27T03:12:53.617Z,60.80
2019-02-27T03:15:50.220Z,60.20
2019-02-27T03:19:05.060Z,60.50
2019-02-27T03:21:43.229Z,60.60
2019-02-27T03:24:44.528Z,61.10
2019-02-27T03:27:53.866Z,61.60
2019-02-27T03:30:58.048Z,62.60
2019-02-27T03:34:20.429Z,63.20
2019-02-27T03:37:17.257Z,63.90
2019-02-27T03:40:13.075Z,64.70
2019-02-27T03:43:29.604Z,64.90
2019-02-27T03:46:41.824Z,66.30
2019-02-27T03:49:41.793Z,66.50
2019-02-27T03:53:04.265Z,68.20
2019-02-27T03:56:16.190Z,67.20
2019-02-27T03:59:22.552Z,66.90
2019-02-27T04:02:23.688Z,65.60
2019-02-27T04:05:18.887Z,64.90
2019-02-27T04:08:09.777Z,63.80
2019-02-27T04:10:39.209Z,63.30
2019-02-27T04:13:08.490Z,62.80
2019-02-27T04:15:37.845Z,62.40
2019-02-27T04:18:05.597Z,62.20
2019-02-27T04:20:34.957Z,62.10
2019-02-27T04:23:04.262Z,61.80
2019-02-27T04:25:33.593Z,61.60
2019-02-27T04:28:02.967Z,61.50
2019-02-27T04:30:32.352Z,61.30
2019-02-27T04:33:01.644Z,60.70
2019-02-27T04:35:31.004Z,60.50
2019-02-27T04:38:00.330Z,60.30
2019-02-27T04:40:29.634Z,60.30
2019-02-27T04:42:59.292Z,60.50
2019-02-27T04:45:29.756Z,60.40
2019-02-27T04:47:59.084Z,59.90
2019-02-27T04:50:28.383Z,60.40
2019-02-27T04:52:58.713Z,60.30
2019-02-27T04:55:28.080Z,60.60
2019-02-27T04:57:57.417Z,61.10
2019-02-27T05:00:26.909Z,61.00
2019-02-27T05:02:56.804Z,61.60
2019-02-27T05:05:26.120Z,61.60
2019-02-27T05:07:55.453Z,61.40
2019-02-27T05:10:24.775Z,61.80
2019-02-27T05:12:54.102Z,61.90
2019-02-27T05:15:23.479Z,62.10
2019-02-27T05:17:53.064Z,62.10
2019-02-27T05:20:23.886Z,61.80
2019-02-27T05:22:53.236Z,62.20
2019-02-27T05:25:22.570Z,62.30
2019-02-27T05:27:51.897Z,62.80
2019-02-27T05:30:21.242Z,63.10
2019-02-27T05:32:50.528Z,63.50
2019-02-27T05:35:23.468Z,64.70
2019-02-27T05:37:50.900Z,66.40
2019-02-27T05:40:20.184Z,66.20
2019-02-27T05:42:49.508Z,66.60
2019-02-27T05:45:18.793Z,65.90
2019-02-27T05:47:48.130Z,65.60
2019-02-27T05:50:17.429Z,66.40
2019-02-27T05:52:48.785Z,66.10
2019-02-27T05:55:17.845Z,66.50
2019-02-27T05:57:47.159Z,66.30
2019-02-27T06:00:18.638Z,66.30
2019-02-27T06:02:48.000Z,65.80
2019-02-27T06:05:17.359Z,66.00
2019-02-27T06:07:46.671Z,65.70
2019-02-27T06:10:19.872Z,65.60
2019-02-27T06:12:47.469Z,65.70
2019-02-27T06:15:17.212Z,65.90
2019-02-27T06:17:49.033Z,66.40
2019-02-27T06:20:17.649Z,66.50
2019-02-27T06:22:46.992Z,66.50
2019-02-27T06:25:21.906Z,66.80
2019-02-27T06:27:48.430Z,67.10
2019-02-27T06:30:18.864Z,67.70
2019-02-27T06:32:48.152Z,68.40
2019-02-27T06:35:17.594Z,68.00
2019-02-27T06:37:50.390Z,68.30
2019-02-27T06:40:18.450Z,68.10
2019-02-27T06:42:48.368Z,68.50
2019-02-27T06:45:21.219Z,68.20
2019-02-27T06:47:50.617Z,68.10
2019-02-27T06:50:20.016Z,68.60
2019-02-27T06:52:49.349Z,69.50
2019-02-27T06:55:18.708Z,72.70
2019-02-27T06:57:48.103Z,70.70
2019-02-27T07:00:18.883Z,70.20
2019-02-27T07:02:48.202Z,70.70
2019-02-27T07:05:17.540Z,71.40
2019-02-27T07:07:46.824Z,71.90
2019-02-27T07:10:19.418Z,70.70
2019-02-27T07:12:48.111Z,70.50
2019-02-27T07:15:18.122Z,70.60
2019-02-27T07:17:47.503Z,70.70
2019-02-27T07:20:16.816Z,70.40
2019-02-27T07:22:46.767Z,70.20
2019-02-27T07:25:16.822Z,70.00
2019-02-27T07:27:46.157Z,69.80
2019-02-27T07:30:16.945Z,69.60
2019-02-27T07:32:46.798Z,69.30
2019-02-27T07:35:16.431Z,68.80
2019-02-27T07:37:47.957Z,68.70
2019-02-27T07:40:16.885Z,68.80
2019-02-27T07:42:46.517Z,68.40
2019-02-27T07:45:17.204Z,68.60
2019-02-27T07:47:46.537Z,68.90
2019-02-27T07:50:16.823Z,68.60
2019-02-27T07:52:46.198Z,68.30
2019-02-27T07:55:22.088Z,68.30
2019-02-27T07:57:47.072Z,67.80
2019-02-27T08:00:18.188Z,68.80
2019-02-27T08:02:47.987Z,68.20
2019-02-27T08:05:17.824Z,67.90
2019-02-27T08:07:49.101Z,68.10
2019-02-27T08:10:19.274Z,66.70
2019-02-27T08:12:48.592Z,65.30
2019-02-27T08:15:18.519Z,64.80
2019-02-27T08:17:48.030Z,64.00
2019-02-27T08:20:20.970Z,62.90
2019-02-27T08:22:49.664Z,62.80
2019-02-27T08:25:19.758Z,62.40
2019-02-27T08:27:49.069Z,62.50
2019-02-27T08:30:20.144Z,61.70
2019-02-27T08:32:50.457Z,61.30
2019-02-27T08:35:19.931Z,60.50
2019-02-27T08:37:49.311Z,60.30
2019-02-27T08:40:18.823Z,60.30
2019-02-27T08:42:48.199Z,60.40
2019-02-27T08:45:20.171Z,60.20
2019-02-27T08:47:48.523Z,60.10
2019-02-27T08:50:17.830Z,59.90
2019-02-27T08:52:50.477Z,59.00
2019-02-27T08:55:21.153Z,58.20
2019-02-27T08:57:50.023Z,57.90
2019-02-27T09:00:23.178Z,58.20
2019-02-27T09:02:55.429Z,57.70
2019-02-27T09:05:24.443Z,57.10
2019-02-27T09:07:53.732Z,56.40
2019-02-27T09:10:26.030Z,55.60
2019-02-27T09:13:04.875Z,55.40
2019-02-27T09:15:26.308Z,55.60
2019-02-27T09:17:55.716Z,54.80
2019-02-27T09:20:25.050Z,55.30
2019-02-27T09:22:55.821Z,54.40
2019-02-27T09:25:25.416Z,54.50
2019-02-27T09:27:54.736Z,53.70
2019-02-27T09:30:28.936Z,53.50
2019-02-27T09:32:55.172Z,53.80
2019-02-27T09:35:24.476Z,53.80
2019-02-27T09:37:53.876Z,53.00
2019-02-27T09:40:23.600Z,52.40
2019-02-27T09:42:53.825Z,51.60
2019-02-27T09:45:29.099Z,50.50
2019-02-27T09:47:59.946Z,49.60
2019-02-27T09:50:35.049Z,49.10
2019-02-27T09:53:04.821Z,48.80
2019-02-27T09:55:34.443Z,47.60
2019-02-27T09:58:04.166Z,47.20
2019-02-27T10:00:41.241Z,45.60
2019-02-27T10:03:10.625Z,44.10
2019-02-27T10:05:40.829Z,45.20
2019-02-27T10:08:12.024Z,43.90
2019-02-27T10:10:44.862Z,44.10
2019-02-27T10:13:13.044Z,43.80
2019-02-27T10:15:42.393Z,43.50
2019-02-27T10:18:11.773Z,43.40
2019-02-27T10:20:41.132Z,42.70
2019-02-27T10:23:10.415Z,41.80
2019-02-27T10:25:43.213Z,41.90
2019-02-27T10:28:10.806Z,40.60
2019-02-27T10:30:40.178Z,37.00
2019-02-27T10:33:11.182Z,36.80
2019-02-27T10:35:40.508Z,37.00
2019-02-27T10:38:09.841Z,35.90
2019-02-27T10:40:39.233Z,37.10
2019-02-27T10:43:08.522Z,36.30
2019-02-27T10:45:37.860Z,33.80
2019-02-27T10:48:07.162Z,32.10
2019-02-27T10:50:36.501Z,31.20
2019-02-27T10:53:06.681Z,31.00
2019-02-27T10:55:36.027Z,31.60
2019-02-27T10:58:07.424Z,31.60
2019-02-27T11:00:36.378Z,32.20
2019-02-27T11:03:05.701Z,32.30
2019-02-27T11:05:35.392Z,31.30
2019-02-27T11:08:04.682Z,29.80
2019-02-27T11:10:34.048Z,31.30
2019-02-27T11:13:06.825Z,31.30
2019-02-27T11:15:34.470Z,30.10
2019-02-27T11:18:05.498Z,30.90
2019-02-27T11:20:34.858Z,30.80
2019-02-27T11:23:06.951Z,30.80
2019-02-27T11:25:35.220Z,30.00
2019-02-27T11:28:04.800Z,29.70
2019-02-27T11:30:36.764Z,29.30
2019-02-27T11:33:07.311Z,29.00
2019-02-27T11:35:38.316Z,29.30
2019-02-27T11:38:07.623Z,31.20
2019-02-27T11:40:41.549Z,29.50
2019-02-27T11:43:08.020Z,27.90
2019-02-27T11:45:37.355Z,27.70
2019-02-27T11:48:07.572Z,27.40
2019-02-27T11:50:36.868Z,27.60
2019-02-27T11:53:06.405Z,26.50
2019-02-27T11:55:35.703Z,27.10
2019-02-27T11:58:05.604Z,27.00
2019-02-27T12:00:35.538Z,27.00
2019-02-27T12:03:04.924Z,26.30
2019-02-27T12:05:34.569Z,26.40
2019-02-27T12:08:04.400Z,26.10
2019-02-27T12:10:34.132Z,26.20
2019-02-27T12:13:03.451Z,26.30
2019-02-27T12:15:32.777Z,26.10
2019-02-27T12:18:02.092Z,24.40
2019-02-27T12:20:31.913Z,24.20
2019-02-27T12:23:01.247Z,24.80
2019-02-27T12:25:32.314Z,23.50
2019-02-27T12:28:02.527Z,24.40
2019-02-27T12:30:32.348Z,23.80
2019-02-27T12:33:01.648Z,23.00
2019-02-27T12:35:31.249Z,22.90
2019-02-27T12:38:00.622Z,23.00
2019-02-27T12:40:29.954Z,22.90
2019-02-27T12:42:59.283Z,22.60
2019-02-27T12:45:29.740Z,24.50
2019-02-27T12:47:59.658Z,24.10
2019-02-27T12:50:31.034Z,23.10
2019-02-27T12:53:00.788Z,23.40
2019-02-27T12:55:30.130Z,24.70
2019-02-27T12:57:59.396Z,24.20
2019-02-27T13:00:29.580Z,23.60
2019-02-27T13:02:59.346Z,22.50
2019-02-27T13:05:29.712Z,22.50
2019-02-27T13:07:59.571Z,23.20
2019-02-27T13:10:33.059Z,22.00
2019-02-27T13:13:00.323Z,21.30
2019-02-27T13:15:29.647Z,22.10
2019-02-27T13:17:58.974Z,21.30
2019-02-27T13:20:28.321Z,21.50
2019-02-27T13:22:57.676Z,21.20
2019-02-27T13:25:26.957Z,20.60
2019-02-27T13:27:56.296Z,21.70
2019-02-27T13:30:25.696Z,20.60
2019-02-27T13:32:55.078Z,22.20
2019-02-27T13:35:24.849Z,19.40
2019-02-27T13:37:54.197Z,18.30
2019-02-27T13:40:23.492Z,19.10
2019-02-27T13:42:53.722Z,18.90
2019-02-27T13:45:25.732Z,19.40
2019-02-27T13:47:55.068Z,20.60
2019-02-27T13:50:26.812Z,19.50
2019-02-27T13:52:56.062Z,18.30
2019-02-27T13:55:25.430Z,17.90
2019-02-27T13:57:58.742Z,16.70
2019-02-27T14:00:28.098Z,16.90
2019-02-27T14:02:57.728Z,16.80
2019-02-27T14:05:27.143Z,17.20
2019-02-27T14:07:58.748Z,18.10
2019-02-27T14:10:29.370Z,16.90
2019-02-27T14:12:58.685Z,16.30
2019-02-27T14:15:28.272Z,16.20
2019-02-27T14:17:58.165Z,15.80
2019-02-27T14:20:28.955Z,16.50
2019-02-27T14:22:58.943Z,16.80
2019-02-27T14:25:32.445Z,16.50
2019-02-27T14:27:59.599Z,16.10
2019-02-27T14:30:40.636Z,15.60
2019-02-27T14:33:10.996Z,15.30
2019-02-27T14:35:41.020Z,15.70
2019-02-27T14:38:10.295Z,15.70
2019-02-27T14:40:41.153Z,15.80
2019-02-27T14:43:10.712Z,16.20
2019-02-27T14:45:40.917Z,15.30
2019-02-27T14:48:10.963Z,15.30
2019-02-27T14:50:40.768Z,14.40
2019-02-27T14:53:10.196Z,14.60
2019-02-27T14:55:39.544Z,15.00
2019-02-27T14:58:08.965Z,16.20
2019-02-27T15:00:41.002Z,14.50
2019-02-27T15:03:09.873Z,15.20
2019-02-27T15:05:43.165Z,14.50
2019-02-27T15:08:10.209Z,15.40
2019-02-27T15:10:41.142Z,15.10
2019-02-27T15:13:11.197Z,14.60
2019-02-27T15:15:43.100Z,13.70
2019-02-27T15:18:11.750Z,13.80
2019-02-27T15:20:41.289Z,13.90
2019-02-27T15:23:11.405Z,13.60
2019-02-27T15:25:43.214Z,14.10
2019-02-27T15:28:11.824Z,15.50
2019-02-27T15:30:41.100Z,17.50
2019-02-27T15:33:10.420Z,18.90
2019-02-27T15:35:39.798Z,20.10
2019-02-27T15:38:11.735Z,21.80
2019-02-27T15:40:40.553Z,20.70
2019-02-27T15:43:11.529Z,22.40
2019-02-27T15:45:47.531Z,23.70
2019-02-27T15:48:11.961Z,24.40
2019-02-27T15:50:41.240Z,25.30
2019-02-27T15:53:14.618Z,26.00
2019-02-27T15:55:41.602Z,26.80
2019-02-27T15:58:10.984Z,27.30
2019-02-27T16:00:40.392Z,27.50
2019-02-27T16:03:11.756Z,27.50
2019-02-27T16:05:40.778Z,27.90
2019-02-27T16:08:10.191Z,28.50
2019-02-27T16:10:42.875Z,28.80
2019-02-27T16:13:10.707Z,29.00
2019-02-27T16:15:40.077Z,29.10
2019-02-27T16:18:09.377Z,29.40
2019-02-27T16:20:38.722Z,29.80
2019-02-27T16:23:08.126Z,30.10
2019-02-27T16:25:37.533Z,32.00
2019-02-27T16:28:11.355Z,31.40
2019-02-27T16:30:38.309Z,30.90
2019-02-27T16:33:07.704Z,30.70
2019-02-27T16:35:41.424Z,30.70
2019-02-27T16:38:08.217Z,30.50
2019-02-27T16:40:37.592Z,30.70
2019-02-27T16:43:06.936Z,30.50
2019-02-27T16:45:37.076Z,30.50
2019-02-27T16:48:08.132Z,30.30
2019-02-27T16:50:38.578Z,30.10
2019-02-27T16:53:07.993Z,30.00
2019-02-27T16:55:39.384Z,29.90
2019-02-27T16:58:08.435Z,29.70
2019-02-27T17:00:39.148Z,29.70
2019-02-27T17:03:13.071Z,29.90
2019-02-27T17:05:40.266Z,30.00
2019-02-27T17:08:10.728Z,30.00
2019-02-27T17:10:40.112Z,29.90
2019-02-27T17:13:14.639Z,30.00
2019-02-27T17:15:40.525Z,29.90
2019-02-27T17:18:09.808Z,29.90
2019-02-27T17:20:39.236Z,30.00
2019-02-27T17:23:10.903Z,30.00
2019-02-27T17:25:39.786Z,30.00
2019-02-27T17:28:09.230Z,30.20
2019-02-27T17:30:38.577Z,30.30
2019-02-27T17:33:07.841Z,30.40
2019-02-27T17:35:37.173Z,30.60
2019-02-27T17:38:06.456Z,30.40
2019-02-27T17:40:37.599Z,30.50
2019-02-27T17:43:06.994Z,30.10
2019-02-27T17:45:36.944Z,30.40
2019-02-27T17:48:09.347Z,30.20
2019-02-27T17:50:37.410Z,30.30
2019-02-27T17:53:06.759Z,30.40
2019-02-27T17:55:38.208Z,30.50
2019-02-27T17:58:07.127Z,30.70
2019-02-27T18:00:38.765Z,31.00
2019-02-27T18:03:08.209Z,31.10
2019-02-27T18:05:37.528Z,31.30
2019-02-27T18:08:06.938Z,31.80
2019-02-27T18:10:37.657Z,32.20
2019-02-27T18:13:07.440Z,32.50
2019-02-27T18:15:36.860Z,33.00
2019-02-27T18:18:07.547Z,33.80
2019-02-27T18:20:37.405Z,34.30
2019-02-27T18:23:06.856Z,34.90
2019-02-27T18:25:42.290Z,35.00
2019-02-27T18:28:12.333Z,35.30
2019-02-27T18:30:42.694Z,35.30
2019-02-27T18:33:14.368Z,35.40
2019-02-27T18:35:43.771Z,35.60
2019-02-27T18:38:13.120Z,36.00
2019-02-27T18:40:42.993Z,35.70
2019-02-27T18:43:13.007Z,35.80
2019-02-27T18:45:42.357Z,36.20
2019-02-27T18:48:12.737Z,36.30
2019-02-27T18:50:42.480Z,36.50
2019-02-27T18:53:13.333Z,36.50
2019-02-27T18:55:44.089Z,36.80
2019-02-27T18:58:14.324Z,37.70
2019-02-27T19:00:43.609Z,37.30
2019-02-27T19:03:13.048Z,37.40
2019-02-27T19:05:42.445Z,37.60
2019-02-27T19:08:11.839Z,38.30
2019-02-27T19:10:42.671Z,37.50
2019-02-27T19:13:13.175Z,37.70
2019-02-27T19:15:46.245Z,37.80
2019-02-27T19:18:14.704Z,37.90
2019-02-27T19:20:44.075Z,37.80
2019-02-27T19:23:17.207Z,37.50
2019-02-27T19:25:45.725Z,37.20
2019-02-27T19:28:16.235Z,36.90
2019-02-27T19:30:46.221Z,37.10
2019-02-27T19:33:16.210Z,37.00
2019-02-27T19:35:45.905Z,37.20
2019-02-27T19:38:15.281Z,37.90
2019-02-27T19:40:44.648Z,37.30
2019-02-27T19:43:14.085Z,37.50
2019-02-27T19:45:43.532Z,37.90
2019-02-27T19:48:13.058Z,38.40
2019-02-27T19:50:46.237Z,38.30
2019-02-27T19:53:13.884Z,38.40
2019-02-27T19:55:43.648Z,38.50
2019-02-27T19:58:17.278Z,38.30
2019-02-27T20:00:48.495Z,39.50
2019-02-27T20:03:15.204Z,40.00
2019-02-27T20:05:44.769Z,40.80
2019-02-27T20:08:14.192Z,41.30
2019-02-27T20:10:44.415Z,41.70
2019-02-27T20:13:14.894Z,42.10
2019-02-27T20:15:45.653Z,42.50
2019-02-27T20:18:16.040Z,42.80
2019-02-27T20:20:47.112Z,43.10
2019-02-27T20:23:16.867Z,43.40
2019-02-27T20:25:46.755Z,43.60
2019-02-27T20:28:16.365Z,44.00
2019-02-27T20:30:46.549Z,44.10
2019-02-27T20:33:16.367Z,44.50
2019-02-27T20:35:48.851Z,44.70
2019-02-27T20:38:19.489Z,44.90
2019-02-27T20:40:50.994Z,45.20
2019-02-27T20:43:22.023Z,45.50
2019-02-27T20:45:52.264Z,45.80
2019-02-27T20:48:22.123Z,46.10
2019-02-27T20:50:52.336Z,46.30
2019-02-27T20:53:21.934Z,46.40
2019-02-27T20:55:51.576Z,46.80
2019-02-27T20:58:22.291Z,46.90
2019-02-27T21:00:51.960Z,47.10
2019-02-27T21:03:26.727Z,47.50
2019-02-27T21:05:52.648Z,48.40
2019-02-27T21:08:23.849Z,47.80
2019-02-27T21:10:56.311Z,48.10
2019-02-27T21:13:26.534Z,48.90
2019-02-27T21:15:56.587Z,49.00
2019-02-27T21:18:29.045Z,49.10
2019-02-27T21:20:58.801Z,49.50
2019-02-27T21:23:31.915Z,49.60
2019-02-27T21:25:59.615Z,49.70
2019-02-27T21:28:29.367Z,49.70
2019-02-27T21:30:58.864Z,49.80
2019-02-27T21:33:28.318Z,50.00
2019-02-27T21:36:00.112Z,49.90
2019-02-27T21:38:28.891Z,50.00
2019-02-27T21:40:58.220Z,50.10
2019-02-27T21:43:27.496Z,50.20
2019-02-27T21:45:56.824Z,50.40
2019-02-27T21:48:26.736Z,50.50
2019-02-27T21:50:57.210Z,51.00
2019-02-27T21:53:29.617Z,50.60
2019-02-27T21:55:57.541Z,50.70
2019-02-27T21:58:31.953Z,50.80
2019-02-27T22:00:57.922Z,51.00
2019-02-27T22:03:27.240Z,51.20
2019-02-27T22:05:56.555Z,52.00
2019-02-27T22:08:26.873Z,51.70
2019-02-27T22:10:56.191Z,52.60
2019-02-27T22:13:29.170Z,52.80
2019-02-27T22:15:56.848Z,53.10
2019-02-27T22:18:26.842Z,53.20
2019-02-27T22:20:59.467Z,52.80
2019-02-27T22:23:28.466Z,52.50
2019-02-27T22:25:58.239Z,52.80
2019-02-27T22:28:28.778Z,52.60
2019-02-27T22:30:58.824Z,52.30
2019-02-27T22:33:28.120Z,52.00
2019-02-27T22:35:57.439Z,51.90
2019-02-27T22:38:26.855Z,52.00
2019-02-27T22:40:56.780Z,52.30
2019-02-27T22:43:26.097Z,52.40
2019-02-27T22:45:55.384Z,52.40
2019-02-27T22:48:27.885Z,52.30
2019-02-27T22:50:55.775Z,52.60
2019-02-27T22:53:26.221Z,52.90
2019-02-27T22:55:56.116Z,53.30
2019-02-27T22:58:27.468Z,52.80
2019-02-27T23:01:18.693Z,53.10
2019-02-27T23:03:55.018Z,52.90
2019-02-27T23:06:24.865Z,53.00
2019-02-27T23:08:55.039Z,53.20
2019-02-27T23:11:25.488Z,53.20
2019-02-27T23:13:54.766Z,52.70
2019-02-27T23:16:24.091Z,52.60
2019-02-27T23:18:53.426Z,52.70
2019-02-27T23:21:22.795Z,52.80
2019-02-27T23:23:52.140Z,53.10
2019-02-27T23:26:21.460Z,53.20
2019-02-27T23:28:50.814Z,53.30
2019-02-27T23:31:23.305Z,53.60
2019-02-27T23:33:51.228Z,54.10
2019-02-27T23:36:22.114Z,53.70
2019-02-27T23:38:51.620Z,54.00
2019-02-27T23:41:23.143Z,54.30
2019-02-27T23:43:51.974Z,54.30
2019-02-27T23:46:21.251Z,54.30
2019-02-27T23:48:50.588Z,54.90
2019-02-27T23:51:19.965Z,54.90
2019-02-27T23:53:49.319Z,55.10
2019-02-27T23:56:20.236Z,55.10
2019-02-27T23:58:49.759Z,55.30
